sensor_id;sensor_type;location;lat;lon;timestamp;P1;durP1;ratioP1;P2;durP2;ratioP2
67804;SDS011;54603;45.638;11.714;2023-02-28T00:00:51;7.60;;;6.00;;
67804;SDS011;54603;45.638;11.714;2023-02-28T00:03:17;6.90;;;6.10;;
67804;SDS011;54603;45.638;11.714;2023-02-28T00:05:43;6.10;;;5.30;;
67804;SDS011;54603;45.638;11.714;2023-02-28T00:08:08;7.00;;;6.00;;
67804;SDS011;54603;45.638;11.714;2023-02-28T00:10:34;7.20;;;5.80;;
67804;SDS011;54603;45.638;11.714;2023-02-28T00:13:02;6.50;;;5.70;;
67804;SDS011;54603;45.638;11.714;2023-02-28T00:15:29;6.90;;;5.60;;
67804;SDS011;54603;45.638;11.714;2023-02-28T00:17:55;8.20;;;5.80;;
67804;SDS011;54603;45.638;11.714;2023-02-28T00:20:21;7.30;;;5.90;;
67804;SDS011;54603;45.638;11.714;2023-02-28T00:22:48;6.80;;;5.60;;
67804;SDS011;54603;45.638;11.714;2023-02-28T00:25:16;7.40;;;5.50;;
67804;SDS011;54603;45.638;11.714;2023-02-28T00:27:43;7.30;;;5.90;;
67804;SDS011;54603;45.638;11.714;2023-02-28T00:30:12;8.60;;;5.90;;
67804;SDS011;54603;45.638;11.714;2023-02-28T00:32:40;8.20;;;5.60;;
67804;SDS011;54603;45.638;11.714;2023-02-28T00:35:06;7.50;;;6.10;;
67804;SDS011;54603;45.638;11.714;2023-02-28T00:37:32;7.60;;;6.20;;
67804;SDS011;54603;45.638;11.714;2023-02-28T00:39:58;7.00;;;5.80;;
67804;SDS011;54603;45.638;11.714;2023-02-28T00:42:23;8.10;;;5.90;;
67804;SDS011;54603;45.638;11.714;2023-02-28T00:44:49;6.20;;;5.40;;
67804;SDS011;54603;45.638;11.714;2023-02-28T00:47:15;7.10;;;6.00;;
67804;SDS011;54603;45.638;11.714;2023-02-28T00:49:41;9.30;;;5.50;;
67804;SDS011;54603;45.638;11.714;2023-02-28T00:52:06;8.50;;;5.60;;
67804;SDS011;54603;45.638;11.714;2023-02-28T00:54:32;7.30;;;5.80;;
67804;SDS011;54603;45.638;11.714;2023-02-28T00:56:58;6.10;;;5.20;;
67804;SDS011;54603;45.638;11.714;2023-02-28T00:59:23;5.90;;;4.90;;
67804;SDS011;54603;45.638;11.714;2023-02-28T01:01:49;6.60;;;5.10;;
67804;SDS011;54603;45.638;11.714;2023-02-28T01:04:14;6.40;;;5.50;;
67804;SDS011;54603;45.638;11.714;2023-02-28T01:06:40;7.00;;;5.30;;
67804;SDS011;54603;45.638;11.714;2023-02-28T01:09:06;5.70;;;5.00;;
67804;SDS011;54603;45.638;11.714;2023-02-28T01:11:33;6.70;;;5.60;;
67804;SDS011;54603;45.638;11.714;2023-02-28T01:13:59;6.30;;;5.00;;
67804;SDS011;54603;45.638;11.714;2023-02-28T01:16:25;5.80;;;5.10;;
67804;SDS011;54603;45.638;11.714;2023-02-28T01:18:51;8.00;;;5.20;;
67804;SDS011;54603;45.638;11.714;2023-02-28T01:21:17;6.10;;;5.20;;
67804;SDS011;54603;45.638;11.714;2023-02-28T01:23:44;5.70;;;4.70;;
67804;SDS011;54603;45.638;11.714;2023-02-28T01:26:12;5.60;;;5.00;;
67804;SDS011;54603;45.638;11.714;2023-02-28T01:28:39;5.40;;;4.80;;
67804;SDS011;54603;45.638;11.714;2023-02-28T01:31:04;5.60;;;5.00;;
67804;SDS011;54603;45.638;11.714;2023-02-28T01:33:31;6.40;;;4.90;;
67804;SDS011;54603;45.638;11.714;2023-02-28T01:36:00;6.20;;;4.90;;
67804;SDS011;54603;45.638;11.714;2023-02-28T01:38:27;6.40;;;4.70;;
67804;SDS011;54603;45.638;11.714;2023-02-28T01:40:53;6.60;;;5.10;;
67804;SDS011;54603;45.638;11.714;2023-02-28T01:43:24;5.10;;;4.60;;
67804;SDS011;54603;45.638;11.714;2023-02-28T01:45:52;5.50;;;4.80;;
67804;SDS011;54603;45.638;11.714;2023-02-28T01:48:19;6.10;;;4.60;;
67804;SDS011;54603;45.638;11.714;2023-02-28T01:50:55;5.70;;;4.60;;
67804;SDS011;54603;45.638;11.714;2023-02-28T01:53:26;5.70;;;4.40;;
67804;SDS011;54603;45.638;11.714;2023-02-28T01:55:56;5.00;;;4.20;;
67804;SDS011;54603;45.638;11.714;2023-02-28T01:58:22;5.10;;;4.30;;
67804;SDS011;54603;45.638;11.714;2023-02-28T02:00:48;5.00;;;4.30;;
67804;SDS011;54603;45.638;11.714;2023-02-28T02:03:15;5.00;;;4.50;;
67804;SDS011;54603;45.638;11.714;2023-02-28T02:05:44;6.00;;;4.30;;
67804;SDS011;54603;45.638;11.714;2023-02-28T02:08:17;5.20;;;4.70;;
67804;SDS011;54603;45.638;11.714;2023-02-28T02:10:46;4.90;;;4.50;;
67804;SDS011;54603;45.638;11.714;2023-02-28T02:13:25;5.50;;;4.30;;
67804;SDS011;54603;45.638;11.714;2023-02-28T02:15:57;5.00;;;4.10;;
67804;SDS011;54603;45.638;11.714;2023-02-28T02:18:35;4.50;;;4.10;;
67804;SDS011;54603;45.638;11.714;2023-02-28T02:24:20;5.20;;;4.40;;
67804;SDS011;54603;45.638;11.714;2023-02-28T02:30:19;4.00;;;3.70;;
67804;SDS011;54603;45.638;11.714;2023-02-28T02:41:19;4.80;;;3.90;;
67804;SDS011;54603;45.638;11.714;2023-02-28T02:46:45;4.50;;;3.70;;
67804;SDS011;54603;45.638;11.714;2023-02-28T02:49:13;5.30;;;3.70;;
67804;SDS011;54603;45.638;11.714;2023-02-28T02:51:42;5.80;;;4.10;;
67804;SDS011;54603;45.638;11.714;2023-02-28T02:54:14;5.50;;;3.70;;
67804;SDS011;54603;45.638;11.714;2023-02-28T02:56:41;5.30;;;4.10;;
67804;SDS011;54603;45.638;11.714;2023-02-28T02:59:10;5.20;;;4.00;;
67804;SDS011;54603;45.638;11.714;2023-02-28T03:01:37;5.30;;;3.70;;
67804;SDS011;54603;45.638;11.714;2023-02-28T03:04:05;4.00;;;3.60;;
67804;SDS011;54603;45.638;11.714;2023-02-28T03:06:35;6.20;;;3.70;;
67804;SDS011;54603;45.638;11.714;2023-02-28T03:09:00;4.40;;;4.00;;
67804;SDS011;54603;45.638;11.714;2023-02-28T03:11:26;4.00;;;3.60;;
67804;SDS011;54603;45.638;11.714;2023-02-28T03:16:34;4.10;;;3.50;;
67804;SDS011;54603;45.638;11.714;2023-02-28T03:19:59;4.10;;;3.70;;
67804;SDS011;54603;45.638;11.714;2023-02-28T03:25:05;4.80;;;3.60;;
67804;SDS011;54603;45.638;11.714;2023-02-28T03:30:39;4.40;;;3.70;;
67804;SDS011;54603;45.638;11.714;2023-02-28T03:33:12;4.90;;;3.70;;
67804;SDS011;54603;45.638;11.714;2023-02-28T03:38:27;4.40;;;3.60;;
67804;SDS011;54603;45.638;11.714;2023-02-28T03:40:55;4.40;;;3.40;;
67804;SDS011;54603;45.638;11.714;2023-02-28T03:43:27;4.00;;;3.50;;
67804;SDS011;54603;45.638;11.714;2023-02-28T03:45:55;3.90;;;3.50;;
67804;SDS011;54603;45.638;11.714;2023-02-28T03:50:48;3.70;;;3.30;;
67804;SDS011;54603;45.638;11.714;2023-02-28T03:53:29;4.50;;;3.90;;
67804;SDS011;54603;45.638;11.714;2023-02-28T03:55:59;3.80;;;3.30;;
67804;SDS011;54603;45.638;11.714;2023-02-28T03:59:13;4.70;;;3.70;;
67804;SDS011;54603;45.638;11.714;2023-02-28T04:03:47;4.30;;;3.60;;
67804;SDS011;54603;45.638;11.714;2023-02-28T04:06:14;4.20;;;3.80;;
67804;SDS011;54603;45.638;11.714;2023-02-28T04:08:42;4.80;;;3.90;;
67804;SDS011;54603;45.638;11.714;2023-02-28T04:11:53;4.10;;;3.40;;
67804;SDS011;54603;45.638;11.714;2023-02-28T04:14:00;5.00;;;3.70;;
67804;SDS011;54603;45.638;11.714;2023-02-28T04:16:27;4.20;;;3.20;;
67804;SDS011;54603;45.638;11.714;2023-02-28T04:18:53;5.10;;;3.40;;
67804;SDS011;54603;45.638;11.714;2023-02-28T04:21:19;3.60;;;3.30;;
67804;SDS011;54603;45.638;11.714;2023-02-28T04:23:47;4.20;;;3.80;;
67804;SDS011;54603;45.638;11.714;2023-02-28T04:26:13;4.30;;;3.60;;
67804;SDS011;54603;45.638;11.714;2023-02-28T04:28:38;5.30;;;3.70;;
67804;SDS011;54603;45.638;11.714;2023-02-28T04:31:04;4.30;;;3.60;;
67804;SDS011;54603;45.638;11.714;2023-02-28T04:33:31;3.50;;;3.00;;
67804;SDS011;54603;45.638;11.714;2023-02-28T04:36:01;4.20;;;3.50;;
67804;SDS011;54603;45.638;11.714;2023-02-28T04:38:29;3.60;;;3.30;;
67804;SDS011;54603;45.638;11.714;2023-02-28T04:40:58;4.30;;;3.50;;
67804;SDS011;54603;45.638;11.714;2023-02-28T04:43:25;4.10;;;3.50;;
67804;SDS011;54603;45.638;11.714;2023-02-28T04:45:52;4.20;;;3.80;;
67804;SDS011;54603;45.638;11.714;2023-02-28T04:48:17;3.60;;;3.30;;
67804;SDS011;54603;45.638;11.714;2023-02-28T04:50:43;3.90;;;3.50;;
67804;SDS011;54603;45.638;11.714;2023-02-28T04:53:08;4.50;;;3.50;;
67804;SDS011;54603;45.638;11.714;2023-02-28T04:55:34;3.40;;;3.10;;
67804;SDS011;54603;45.638;11.714;2023-02-28T04:58:00;3.60;;;3.30;;
67804;SDS011;54603;45.638;11.714;2023-02-28T05:00:25;3.90;;;3.20;;
67804;SDS011;54603;45.638;11.714;2023-02-28T05:02:51;3.70;;;3.30;;
67804;SDS011;54603;45.638;11.714;2023-02-28T05:05:16;4.30;;;3.30;;
67804;SDS011;54603;45.638;11.714;2023-02-28T05:07:44;3.60;;;3.20;;
67804;SDS011;54603;45.638;11.714;2023-02-28T05:10:10;3.90;;;3.20;;
67804;SDS011;54603;45.638;11.714;2023-02-28T05:12:36;4.10;;;3.40;;
67804;SDS011;54603;45.638;11.714;2023-02-28T05:15:02;3.60;;;3.20;;
67804;SDS011;54603;45.638;11.714;2023-02-28T05:17:30;3.80;;;3.20;;
67804;SDS011;54603;45.638;11.714;2023-02-28T05:19:55;3.60;;;3.30;;
67804;SDS011;54603;45.638;11.714;2023-02-28T05:22:21;4.10;;;3.30;;
67804;SDS011;54603;45.638;11.714;2023-02-28T05:24:47;3.80;;;3.40;;
67804;SDS011;54603;45.638;11.714;2023-02-28T05:27:12;3.70;;;3.20;;
67804;SDS011;54603;45.638;11.714;2023-02-28T05:29:38;4.40;;;3.60;;
67804;SDS011;54603;45.638;11.714;2023-02-28T05:32:10;4.20;;;3.10;;
67804;SDS011;54603;45.638;11.714;2023-02-28T05:34:37;3.80;;;3.10;;
67804;SDS011;54603;45.638;11.714;2023-02-28T05:37:03;4.50;;;3.40;;
67804;SDS011;54603;45.638;11.714;2023-02-28T05:39:30;3.50;;;3.20;;
67804;SDS011;54603;45.638;11.714;2023-02-28T05:41:55;4.00;;;3.30;;
67804;SDS011;54603;45.638;11.714;2023-02-28T05:44:21;4.50;;;3.10;;
67804;SDS011;54603;45.638;11.714;2023-02-28T05:46:46;4.10;;;3.30;;
67804;SDS011;54603;45.638;11.714;2023-02-28T05:49:12;3.60;;;3.30;;
67804;SDS011;54603;45.638;11.714;2023-02-28T05:51:37;3.90;;;3.50;;
67804;SDS011;54603;45.638;11.714;2023-02-28T05:54:05;3.30;;;3.00;;
67804;SDS011;54603;45.638;11.714;2023-02-28T05:56:31;3.60;;;3.20;;
67804;SDS011;54603;45.638;11.714;2023-02-28T05:58:57;3.70;;;3.20;;
67804;SDS011;54603;45.638;11.714;2023-02-28T06:01:36;3.60;;;3.20;;
67804;SDS011;54603;45.638;11.714;2023-02-28T06:04:03;3.90;;;3.00;;
67804;SDS011;54603;45.638;11.714;2023-02-28T06:06:30;3.30;;;3.00;;
67804;SDS011;54603;45.638;11.714;2023-02-28T06:08:56;3.40;;;3.00;;
67804;SDS011;54603;45.638;11.714;2023-02-28T06:11:22;3.60;;;2.80;;
67804;SDS011;54603;45.638;11.714;2023-02-28T06:13:55;3.70;;;3.20;;
67804;SDS011;54603;45.638;11.714;2023-02-28T06:16:25;4.20;;;3.40;;
67804;SDS011;54603;45.638;11.714;2023-02-28T06:18:56;3.70;;;3.00;;
67804;SDS011;54603;45.638;11.714;2023-02-28T06:21:23;3.40;;;3.10;;
67804;SDS011;54603;45.638;11.714;2023-02-28T06:23:49;4.70;;;3.10;;
67804;SDS011;54603;45.638;11.714;2023-02-28T06:26:14;3.40;;;3.10;;
67804;SDS011;54603;45.638;11.714;2023-02-28T06:28:40;3.50;;;3.10;;
67804;SDS011;54603;45.638;11.714;2023-02-28T06:31:09;3.30;;;3.00;;
67804;SDS011;54603;45.638;11.714;2023-02-28T06:33:37;3.70;;;3.40;;
67804;SDS011;54603;45.638;11.714;2023-02-28T06:36:03;5.40;;;2.80;;
67804;SDS011;54603;45.638;11.714;2023-02-28T06:38:30;3.30;;;3.00;;
67804;SDS011;54603;45.638;11.714;2023-02-28T06:40:56;3.30;;;2.90;;
67804;SDS011;54603;45.638;11.714;2023-02-28T06:43:23;3.30;;;3.00;;
67804;SDS011;54603;45.638;11.714;2023-02-28T06:45:49;3.60;;;3.10;;
67804;SDS011;54603;45.638;11.714;2023-02-28T06:48:15;5.40;;;3.20;;
67804;SDS011;54603;45.638;11.714;2023-02-28T06:50:41;6.40;;;3.40;;
67804;SDS011;54603;45.638;11.714;2023-02-28T06:53:06;3.80;;;3.20;;
67804;SDS011;54603;45.638;11.714;2023-02-28T06:55:32;4.80;;;3.40;;
67804;SDS011;54603;45.638;11.714;2023-02-28T06:57:58;3.90;;;3.30;;
67804;SDS011;54603;45.638;11.714;2023-02-28T07:00:24;3.50;;;3.20;;
67804;SDS011;54603;45.638;11.714;2023-02-28T07:02:50;6.20;;;3.40;;
67804;SDS011;54603;45.638;11.714;2023-02-28T07:05:15;5.40;;;3.30;;
67804;SDS011;54603;45.638;11.714;2023-02-28T07:07:41;4.30;;;3.00;;
67804;SDS011;54603;45.638;11.714;2023-02-28T07:10:12;6.10;;;3.30;;
67804;SDS011;54603;45.638;11.714;2023-02-28T07:12:40;3.80;;;3.40;;
67804;SDS011;54603;45.638;11.714;2023-02-28T07:15:06;3.80;;;3.30;;
67804;SDS011;54603;45.638;11.714;2023-02-28T07:17:32;5.80;;;3.10;;
67804;SDS011;54603;45.638;11.714;2023-02-28T07:19:58;3.40;;;3.10;;
67804;SDS011;54603;45.638;11.714;2023-02-28T07:22:23;4.80;;;3.30;;
67804;SDS011;54603;45.638;11.714;2023-02-28T07:24:50;4.80;;;3.60;;
67804;SDS011;54603;45.638;11.714;2023-02-28T07:27:15;4.10;;;3.10;;
67804;SDS011;54603;45.638;11.714;2023-02-28T07:29:49;6.20;;;3.20;;
67804;SDS011;54603;45.638;11.714;2023-02-28T07:32:15;3.60;;;3.00;;
67804;SDS011;54603;45.638;11.714;2023-02-28T07:34:40;4.70;;;3.20;;
67804;SDS011;54603;45.638;11.714;2023-02-28T07:37:06;4.40;;;3.50;;
67804;SDS011;54603;45.638;11.714;2023-02-28T07:39:31;3.60;;;3.10;;
67804;SDS011;54603;45.638;11.714;2023-02-28T07:41:57;4.30;;;3.30;;
67804;SDS011;54603;45.638;11.714;2023-02-28T07:44:25;4.10;;;3.30;;
67804;SDS011;54603;45.638;11.714;2023-02-28T07:46:51;4.60;;;3.10;;
67804;SDS011;54603;45.638;11.714;2023-02-28T07:49:18;5.20;;;3.30;;
67804;SDS011;54603;45.638;11.714;2023-02-28T07:51:43;4.10;;;3.20;;
67804;SDS011;54603;45.638;11.714;2023-02-28T07:54:09;6.20;;;3.20;;
67804;SDS011;54603;45.638;11.714;2023-02-28T07:56:34;4.40;;;3.20;;
67804;SDS011;54603;45.638;11.714;2023-02-28T07:59:00;5.30;;;3.20;;
67804;SDS011;54603;45.638;11.714;2023-02-28T08:01:26;4.60;;;3.10;;
67804;SDS011;54603;45.638;11.714;2023-02-28T08:03:52;3.40;;;3.00;;
67804;SDS011;54603;45.638;11.714;2023-02-28T08:06:21;5.80;;;3.30;;
67804;SDS011;54603;45.638;11.714;2023-02-28T08:08:47;4.40;;;3.10;;
67804;SDS011;54603;45.638;11.714;2023-02-28T08:11:13;3.70;;;3.20;;
67804;SDS011;54603;45.638;11.714;2023-02-28T08:13:39;5.90;;;2.90;;
67804;SDS011;54603;45.638;11.714;2023-02-28T08:16:05;3.20;;;2.90;;
67804;SDS011;54603;45.638;11.714;2023-02-28T08:18:31;3.20;;;2.90;;
67804;SDS011;54603;45.638;11.714;2023-02-28T08:20:57;3.60;;;2.90;;
67804;SDS011;54603;45.638;11.714;2023-02-28T08:23:23;6.20;;;3.30;;
67804;SDS011;54603;45.638;11.714;2023-02-28T08:25:54;7.20;;;3.30;;
67804;SDS011;54603;45.638;11.714;2023-02-28T08:28:21;4.70;;;3.00;;
67804;SDS011;54603;45.638;11.714;2023-02-28T08:30:47;4.30;;;3.20;;
67804;SDS011;54603;45.638;11.714;2023-02-28T08:33:12;3.00;;;2.70;;
67804;SDS011;54603;45.638;11.714;2023-02-28T08:35:38;5.10;;;3.50;;
67804;SDS011;54603;45.638;11.714;2023-02-28T08:38:03;3.90;;;3.10;;
67804;SDS011;54603;45.638;11.714;2023-02-28T08:40:29;3.50;;;3.10;;
67804;SDS011;54603;45.638;11.714;2023-02-28T08:42:54;4.20;;;3.10;;
67804;SDS011;54603;45.638;11.714;2023-02-28T08:45:20;3.50;;;2.60;;
67804;SDS011;54603;45.638;11.714;2023-02-28T08:47:45;5.00;;;3.20;;
67804;SDS011;54603;45.638;11.714;2023-02-28T08:50:11;4.30;;;3.30;;
67804;SDS011;54603;45.638;11.714;2023-02-28T08:52:41;4.30;;;3.20;;
67804;SDS011;54603;45.638;11.714;2023-02-28T08:55:10;3.50;;;2.90;;
67804;SDS011;54603;45.638;11.714;2023-02-28T08:57:39;5.50;;;3.20;;
67804;SDS011;54603;45.638;11.714;2023-02-28T09:00:04;3.80;;;3.00;;
67804;SDS011;54603;45.638;11.714;2023-02-28T09:02:31;4.30;;;3.10;;
67804;SDS011;54603;45.638;11.714;2023-02-28T09:05:06;5.70;;;3.20;;
67804;SDS011;54603;45.638;11.714;2023-02-28T09:07:33;3.60;;;2.90;;
67804;SDS011;54603;45.638;11.714;2023-02-28T09:09:58;3.50;;;3.10;;
67804;SDS011;54603;45.638;11.714;2023-02-28T09:12:25;8.20;;;3.50;;
67804;SDS011;54603;45.638;11.714;2023-02-28T09:14:53;4.20;;;3.20;;
67804;SDS011;54603;45.638;11.714;2023-02-28T09:17:21;4.90;;;3.50;;
67804;SDS011;54603;45.638;11.714;2023-02-28T09:19:47;5.40;;;3.50;;
67804;SDS011;54603;45.638;11.714;2023-02-28T09:22:14;5.50;;;3.20;;
67804;SDS011;54603;45.638;11.714;2023-02-28T09:24:40;4.60;;;2.50;;
67804;SDS011;54603;45.638;11.714;2023-02-28T09:27:06;4.40;;;3.50;;
67804;SDS011;54603;45.638;11.714;2023-02-28T09:29:32;5.80;;;3.50;;
67804;SDS011;54603;45.638;11.714;2023-02-28T09:31:58;8.80;;;3.90;;
67804;SDS011;54603;45.638;11.714;2023-02-28T09:34:25;4.30;;;3.70;;
67804;SDS011;54603;45.638;11.714;2023-02-28T09:36:51;6.30;;;3.60;;
67804;SDS011;54603;45.638;11.714;2023-02-28T09:39:20;5.80;;;3.60;;
67804;SDS011;54603;45.638;11.714;2023-02-28T09:41:47;3.80;;;3.20;;
67804;SDS011;54603;45.638;11.714;2023-02-28T09:47:08;4.70;;;3.80;;
67804;SDS011;54603;45.638;11.714;2023-02-28T09:49:39;4.50;;;3.70;;
67804;SDS011;54603;45.638;11.714;2023-02-28T09:52:10;4.70;;;3.70;;
67804;SDS011;54603;45.638;11.714;2023-02-28T09:54:39;5.90;;;3.80;;
67804;SDS011;54603;45.638;11.714;2023-02-28T10:03:04;4.50;;;3.40;;
67804;SDS011;54603;45.638;11.714;2023-02-28T10:13:04;5.60;;;3.80;;
67804;SDS011;54603;45.638;11.714;2023-02-28T10:15:32;6.00;;;3.80;;
67804;SDS011;54603;45.638;11.714;2023-02-28T10:18:03;5.60;;;3.90;;
67804;SDS011;54603;45.638;11.714;2023-02-28T10:20:32;6.10;;;3.40;;
67804;SDS011;54603;45.638;11.714;2023-02-28T10:25:44;5.70;;;3.70;;
67804;SDS011;54603;45.638;11.714;2023-02-28T10:28:15;7.10;;;4.00;;
67804;SDS011;54603;45.638;11.714;2023-02-28T10:30:46;4.80;;;3.80;;
67804;SDS011;54603;45.638;11.714;2023-02-28T10:33:16;5.40;;;3.60;;
67804;SDS011;54603;45.638;11.714;2023-02-28T10:35:47;5.50;;;3.90;;
67804;SDS011;54603;45.638;11.714;2023-02-28T10:38:18;7.60;;;3.70;;
67804;SDS011;54603;45.638;11.714;2023-02-28T10:40:49;5.50;;;3.80;;
67804;SDS011;54603;45.638;11.714;2023-02-28T10:45:51;5.40;;;3.50;;
67804;SDS011;54603;45.638;11.714;2023-02-28T10:53:21;6.10;;;3.10;;
67804;SDS011;54603;45.638;11.714;2023-02-28T11:01:15;5.70;;;3.70;;
67804;SDS011;54603;45.638;11.714;2023-02-28T11:03:42;7.70;;;3.20;;
67804;SDS011;54603;45.638;11.714;2023-02-28T11:06:13;6.40;;;4.10;;
67804;SDS011;54603;45.638;11.714;2023-02-28T11:08:45;6.20;;;3.50;;
67804;SDS011;54603;45.638;11.714;2023-02-28T11:11:13;3.70;;;3.00;;
67804;SDS011;54603;45.638;11.714;2023-02-28T11:13:39;5.90;;;3.70;;
67804;SDS011;54603;45.638;11.714;2023-02-28T11:16:05;5.30;;;3.30;;
67804;SDS011;54603;45.638;11.714;2023-02-28T11:18:38;6.60;;;3.10;;
67804;SDS011;54603;45.638;11.714;2023-02-28T11:21:07;3.80;;;3.10;;
67804;SDS011;54603;45.638;11.714;2023-02-28T11:23:34;6.70;;;3.00;;
67804;SDS011;54603;45.638;11.714;2023-02-28T11:26:03;7.60;;;3.30;;
67804;SDS011;54603;45.638;11.714;2023-02-28T11:28:39;6.20;;;3.60;;
67804;SDS011;54603;45.638;11.714;2023-02-28T11:33:32;5.50;;;3.10;;
67804;SDS011;54603;45.638;11.714;2023-02-28T11:36:18;5.60;;;3.20;;
67804;SDS011;54603;45.638;11.714;2023-02-28T11:38:47;5.40;;;3.20;;
67804;SDS011;54603;45.638;11.714;2023-02-28T11:46:45;4.50;;;3.10;;
67804;SDS011;54603;45.638;11.714;2023-02-28T11:54:46;4.50;;;2.90;;
67804;SDS011;54603;45.638;11.714;2023-02-28T11:57:30;5.00;;;3.00;;
67804;SDS011;54603;45.638;11.714;2023-02-28T12:00:19;4.80;;;3.30;;
67804;SDS011;54603;45.638;11.714;2023-02-28T12:05:37;4.70;;;2.80;;
67804;SDS011;54603;45.638;11.714;2023-02-28T12:11:01;5.30;;;2.80;;
67804;SDS011;54603;45.638;11.714;2023-02-28T12:21:31;6.20;;;2.90;;
67804;SDS011;54603;45.638;11.714;2023-02-28T12:26:57;7.60;;;2.70;;
67804;SDS011;54603;45.638;11.714;2023-02-28T12:29:24;4.90;;;3.00;;
67804;SDS011;54603;45.638;11.714;2023-02-28T12:32:37;4.50;;;3.00;;
67804;SDS011;54603;45.638;11.714;2023-02-28T12:37:34;4.20;;;2.80;;
67804;SDS011;54603;45.638;11.714;2023-02-28T12:40:12;5.00;;;3.20;;
67804;SDS011;54603;45.638;11.714;2023-02-28T12:42:45;4.70;;;3.00;;
67804;SDS011;54603;45.638;11.714;2023-02-28T12:47:50;3.60;;;2.90;;
67804;SDS011;54603;45.638;11.714;2023-02-28T12:50:20;5.00;;;3.00;;
67804;SDS011;54603;45.638;11.714;2023-02-28T12:55:38;3.90;;;2.70;;
67804;SDS011;54603;45.638;11.714;2023-02-28T12:58:12;3.50;;;2.40;;
67804;SDS011;54603;45.638;11.714;2023-02-28T13:01:07;3.90;;;2.70;;
67804;SDS011;54603;45.638;11.714;2023-02-28T13:07:03;4.20;;;3.30;;
67804;SDS011;54603;45.638;11.714;2023-02-28T13:09:54;5.70;;;2.80;;
67804;SDS011;54603;45.638;11.714;2023-02-28T13:12:21;5.90;;;2.90;;
67804;SDS011;54603;45.638;11.714;2023-02-28T13:14:48;4.70;;;2.70;;
67804;SDS011;54603;45.638;11.714;2023-02-28T13:17:21;4.20;;;3.00;;
67804;SDS011;54603;45.638;11.714;2023-02-28T13:24:54;4.60;;;2.90;;
67804;SDS011;54603;45.638;11.714;2023-02-28T13:27:39;4.20;;;2.90;;
67804;SDS011;54603;45.638;11.714;2023-02-28T13:33:29;5.20;;;3.10;;
67804;SDS011;54603;45.638;11.714;2023-02-28T13:38:38;5.20;;;2.90;;
67804;SDS011;54603;45.638;11.714;2023-02-28T13:46:34;3.90;;;2.70;;
67804;SDS011;54603;45.638;11.714;2023-02-28T14:00:31;3.80;;;2.80;;
67804;SDS011;54603;45.638;11.714;2023-02-28T14:03:43;5.40;;;3.00;;
67804;SDS011;54603;45.638;11.714;2023-02-28T14:06:29;3.90;;;2.80;;
67804;SDS011;54603;45.638;11.714;2023-02-28T14:11:28;4.30;;;3.30;;
67804;SDS011;54603;45.638;11.714;2023-02-28T14:13:56;6.20;;;3.80;;
67804;SDS011;54603;45.638;11.714;2023-02-28T14:16:26;5.60;;;3.40;;
67804;SDS011;54603;45.638;11.714;2023-02-28T14:19:37;6.40;;;3.40;;
67804;SDS011;54603;45.638;11.714;2023-02-28T14:21:52;6.00;;;3.50;;
67804;SDS011;54603;45.638;11.714;2023-02-28T14:30:20;5.50;;;3.40;;
67804;SDS011;54603;45.638;11.714;2023-02-28T14:38:25;6.60;;;3.70;;
67804;SDS011;54603;45.638;11.714;2023-02-28T14:40:56;6.20;;;4.50;;
67804;SDS011;54603;45.638;11.714;2023-02-28T14:43:24;8.00;;;4.40;;
67804;SDS011;54603;45.638;11.714;2023-02-28T14:45:51;5.30;;;3.80;;
67804;SDS011;54603;45.638;11.714;2023-02-28T14:48:22;5.70;;;4.20;;
67804;SDS011;54603;45.638;11.714;2023-02-28T14:50:48;6.00;;;4.00;;
67804;SDS011;54603;45.638;11.714;2023-02-28T14:53:17;12.40;;;4.10;;
67804;SDS011;54603;45.638;11.714;2023-02-28T14:55:45;5.50;;;4.50;;
67804;SDS011;54603;45.638;11.714;2023-02-28T14:58:22;4.50;;;4.00;;
67804;SDS011;54603;45.638;11.714;2023-02-28T15:00:52;7.40;;;4.50;;
67804;SDS011;54603;45.638;11.714;2023-02-28T15:05:54;5.50;;;4.20;;
67804;SDS011;54603;45.638;11.714;2023-02-28T15:08:22;6.00;;;4.60;;
67804;SDS011;54603;45.638;11.714;2023-02-28T15:13:53;7.40;;;4.40;;
67804;SDS011;54603;45.638;11.714;2023-02-28T15:16:24;8.90;;;4.60;;
67804;SDS011;54603;45.638;11.714;2023-02-28T15:21:43;7.60;;;4.80;;
67804;SDS011;54603;45.638;11.714;2023-02-28T15:26:49;9.30;;;4.40;;
67804;SDS011;54603;45.638;11.714;2023-02-28T15:29:22;8.10;;;4.20;;
67804;SDS011;54603;45.638;11.714;2023-02-28T15:31:50;6.40;;;4.10;;
67804;SDS011;54603;45.638;11.714;2023-02-28T15:34:20;6.40;;;4.50;;
67804;SDS011;54603;45.638;11.714;2023-02-28T15:36:52;8.60;;;4.20;;
67804;SDS011;54603;45.638;11.714;2023-02-28T15:39:18;6.50;;;4.20;;
67804;SDS011;54603;45.638;11.714;2023-02-28T15:41:46;5.40;;;4.40;;
67804;SDS011;54603;45.638;11.714;2023-02-28T15:44:23;7.90;;;4.50;;
67804;SDS011;54603;45.638;11.714;2023-02-28T15:47:02;10.90;;;5.00;;
67804;SDS011;54603;45.638;11.714;2023-02-28T15:49:51;8.60;;;4.60;;
67804;SDS011;54603;45.638;11.714;2023-02-28T15:55:17;7.00;;;4.60;;
67804;SDS011;54603;45.638;11.714;2023-02-28T15:57:43;5.70;;;4.10;;
67804;SDS011;54603;45.638;11.714;2023-02-28T16:00:12;9.20;;;4.50;;
67804;SDS011;54603;45.638;11.714;2023-02-28T16:02:39;6.30;;;4.50;;
67804;SDS011;54603;45.638;11.714;2023-02-28T16:07:35;8.40;;;4.70;;
67804;SDS011;54603;45.638;11.714;2023-02-28T16:10:01;7.90;;;4.60;;
67804;SDS011;54603;45.638;11.714;2023-02-28T16:12:28;8.40;;;4.20;;
67804;SDS011;54603;45.638;11.714;2023-02-28T16:14:57;7.30;;;4.50;;
67804;SDS011;54603;45.638;11.714;2023-02-28T16:17:25;7.00;;;4.80;;
67804;SDS011;54603;45.638;11.714;2023-02-28T16:19:53;8.80;;;4.70;;
67804;SDS011;54603;45.638;11.714;2023-02-28T16:22:19;7.20;;;4.40;;
67804;SDS011;54603;45.638;11.714;2023-02-28T16:24:44;7.80;;;4.40;;
67804;SDS011;54603;45.638;11.714;2023-02-28T16:27:14;7.40;;;4.40;;
67804;SDS011;54603;45.638;11.714;2023-02-28T16:29:43;8.90;;;4.40;;
67804;SDS011;54603;45.638;11.714;2023-02-28T16:32:10;7.40;;;4.60;;
67804;SDS011;54603;45.638;11.714;2023-02-28T16:34:38;5.80;;;4.20;;
67804;SDS011;54603;45.638;11.714;2023-02-28T16:37:04;8.80;;;4.10;;
67804;SDS011;54603;45.638;11.714;2023-02-28T16:39:40;9.60;;;4.10;;
67804;SDS011;54603;45.638;11.714;2023-02-28T16:42:07;5.50;;;4.60;;
67804;SDS011;54603;45.638;11.714;2023-02-28T16:44:41;5.50;;;4.00;;
67804;SDS011;54603;45.638;11.714;2023-02-28T16:47:08;12.40;;;4.90;;
67804;SDS011;54603;45.638;11.714;2023-02-28T16:49:35;7.30;;;4.60;;
67804;SDS011;54603;45.638;11.714;2023-02-28T16:52:00;6.30;;;4.60;;
67804;SDS011;54603;45.638;11.714;2023-02-28T16:54:26;7.50;;;4.50;;
67804;SDS011;54603;45.638;11.714;2023-02-28T16:56:51;6.60;;;4.30;;
67804;SDS011;54603;45.638;11.714;2023-02-28T16:59:23;8.90;;;4.80;;
67804;SDS011;54603;45.638;11.714;2023-02-28T17:01:50;6.50;;;4.50;;
67804;SDS011;54603;45.638;11.714;2023-02-28T17:04:16;6.10;;;4.80;;
67804;SDS011;54603;45.638;11.714;2023-02-28T17:06:42;7.40;;;4.80;;
67804;SDS011;54603;45.638;11.714;2023-02-28T17:09:11;7.40;;;4.80;;
67804;SDS011;54603;45.638;11.714;2023-02-28T17:11:43;6.90;;;4.50;;
67804;SDS011;54603;45.638;11.714;2023-02-28T17:14:09;9.60;;;4.80;;
67804;SDS011;54603;45.638;11.714;2023-02-28T17:16:35;6.80;;;4.80;;
67804;SDS011;54603;45.638;11.714;2023-02-28T17:19:05;7.30;;;5.00;;
67804;SDS011;54603;45.638;11.714;2023-02-28T17:21:32;8.00;;;4.60;;
67804;SDS011;54603;45.638;11.714;2023-02-28T17:23:59;6.20;;;4.50;;
67804;SDS011;54603;45.638;11.714;2023-02-28T17:26:25;6.90;;;5.40;;
67804;SDS011;54603;45.638;11.714;2023-02-28T17:28:53;7.00;;;4.70;;